Otis, Kansas
Current Conditions -  °F | °C
As of 10:35 PM on Saturday 25 Oct 2014 (Local Time) from KGBD Reporting Station
Clear Clear  
Wind Chill: 64°   Ceiling: Unl
Heat Index: 64°   Visibility: 10mi
Dew Point: 54°   Wind: 9mph
Humidity: 68%   Direction: 150°SSE
Pressure: 29.93"   Gusts: NA
Location:  38.53°N, 99.05°W
Report Text: KGBD 260335Z AUTO 15008KT 10SM CLR 18/12 A2993 RMK AO1
Loading
Personal Weather Stations






























Interactive Weather Map
Tropical Storm Tracking
New forecast layout! Learn more

10-Day Weather Forecast

Advertisements
Track Severe Weather on mobile